aviador You're here:

SLRB Decoded Metar

ROBORE in BOLIVIA
Report Time2018-06-22 22:00:00
UTC Time2018-06-22 23:00:39
Flight Rules vfr VFR
Wind360° at 08 kt
W.Decomp.*RWY 36: 7.8 kt HW 1.7 kt RCW
Visibility9999 m
Phenomena:N/A
Clouds:N/A
Expected CloudBase > 3,200 ft AGL from Temp-Dew spread
CeilingNone
Temp29°C (ISA +16)
Dew Point21°C (62% RH)
Heat Index31.3°C
QNH1015 hPa
Density Alt3,015 ft
Elevation932 ft
Report Wrong Elevation
Raw Report
METAR SLRB 222200Z 36008KT 9999 NSC 29/21 Q1015=

Extra information for SLRB:More info

Metar Taf Metar & Taf Last 4 Metars F.Rules Stats Wind Profile Meteogram Temp Stats Airport Information Weather charts Add Link Nearby VenuesMetar ALERT Operation Metar Decoded Social comments